createdAt,value
2023-01-10T00:03:33.191Z,98385.47
2023-01-10T00:06:20.252Z,98392.03
2023-01-10T00:09:07.406Z,98387.44
2023-01-10T00:12:13.263Z,98389.78
2023-01-10T00:15:00.752Z,98381.28
2023-01-10T00:17:47.977Z,98377.88
2023-01-10T00:20:35.322Z,98391.22
2023-01-10T00:23:22.914Z,98396.41
2023-01-10T00:26:10.653Z,98392.00
2023-01-10T00:28:57.691Z,98394.31
2023-01-10T00:31:44.821Z,98398.78
2023-01-10T00:34:32.859Z,98395.41
2023-01-10T00:37:20.063Z,98401.25
2023-01-10T00:40:11.589Z,98407.31
2023-01-10T00:43:18.108Z,98409.59
2023-01-10T00:46:05.348Z,98429.72
2023-01-10T00:48:52.952Z,98432.66
2023-01-10T00:51:40.062Z,98435.50
2023-01-10T00:54:27.175Z,98429.59
2023-01-10T00:57:14.321Z,98440.38
2023-01-10T01:00:04.125Z,98447.88
2023-01-10T01:02:51.817Z,98451.38
2023-01-10T01:05:46.929Z,98465.91
2023-01-10T01:08:34.053Z,98465.84
2023-01-10T01:11:21.181Z,98465.53
2023-01-10T01:14:08.359Z,98476.63
2023-01-10T01:16:55.569Z,98488.31
2023-01-10T01:19:42.660Z,98491.00
2023-01-10T01:22:29.748Z,98493.31
2023-01-10T01:25:16.891Z,98500.50
2023-01-10T01:28:04.198Z,98504.47
2023-01-10T01:30:51.727Z,98513.09
2023-01-10T01:33:39.022Z,98518.69
2023-01-10T01:36:26.231Z,98506.09
2023-01-10T01:39:13.281Z,98523.13
2023-01-10T01:42:00.608Z,98520.97
2023-01-10T01:45:22.610Z,98523.38
2023-01-10T01:48:15.035Z,98532.47
2023-01-10T01:51:17.691Z,98519.53
2023-01-10T01:54:12.126Z,98541.22
2023-01-10T01:57:13.552Z,98536.81
2023-01-10T02:00:03.797Z,98531.63
2023-01-10T02:03:02.221Z,98549.53
2023-01-10T02:05:49.941Z,98535.69
2023-01-10T02:08:44.402Z,98561.56
2023-01-10T02:11:31.578Z,98545.00
2023-01-10T02:14:20.639Z,98562.59
2023-01-10T02:17:10.758Z,98571.69
2023-01-10T02:20:03.340Z,98577.00
2023-01-10T02:23:19.997Z,98580.19
2023-01-10T02:26:28.192Z,98588.69
2023-01-10T02:29:45.776Z,98579.81
2023-01-10T02:33:04.197Z,98573.25
2023-01-10T02:35:56.894Z,98585.50
2023-01-10T02:38:50.568Z,98586.19
2023-01-10T02:42:07.012Z,98596.56
2023-01-10T02:45:21.694Z,98591.91
2023-01-10T02:48:08.791Z,98606.09
2023-01-10T02:51:04.011Z,98608.72
2023-01-10T02:53:58.629Z,98618.19
2023-01-10T02:57:04.524Z,98613.75
2023-01-10T03:00:03.390Z,98630.13
2023-01-10T03:03:18.049Z,98626.88
2023-01-10T03:06:37.596Z,98637.19
2023-01-10T03:09:34.533Z,98630.91
2023-01-10T03:12:36.102Z,98631.41
2023-01-10T03:15:28.128Z,98639.09
2023-01-10T03:18:32.566Z,98621.81
2023-01-10T03:21:21.694Z,98639.69
2023-01-10T03:24:18.594Z,98643.56
2023-01-10T03:27:08.392Z,98639.09
2023-01-10T03:30:04.230Z,98656.41
2023-01-10T03:32:51.666Z,98641.63
2023-01-10T03:36:01.101Z,98652.53
2023-01-10T03:38:56.543Z,98633.19
2023-01-10T03:42:25.115Z,98648.03
2023-01-10T03:45:13.747Z,98630.53
2023-01-10T03:48:05.336Z,98672.34
2023-01-10T03:50:53.435Z,98668.38
2023-01-10T03:53:40.604Z,98670.00
2023-01-10T03:56:27.943Z,98669.28
2023-01-10T03:59:15.113Z,98660.66
2023-01-10T04:02:02.301Z,98683.56
2023-01-10T04:04:49.443Z,98697.50
2023-01-10T04:07:37.043Z,98686.78
2023-01-10T04:10:27.263Z,98704.56
2023-01-10T04:13:14.403Z,98704.50
2023-01-10T04:16:02.361Z,98699.31
2023-01-10T04:18:49.520Z,98713.59
2023-01-10T04:21:36.695Z,98720.59
2023-01-10T04:24:23.825Z,98717.28
2023-01-10T04:27:11.079Z,98725.53
2023-01-10T04:29:58.109Z,98728.84
2023-01-10T04:32:45.151Z,98731.78
2023-01-10T04:35:32.203Z,98731.97
2023-01-10T04:38:19.323Z,98749.38
2023-01-10T04:41:08.091Z,98757.38
2023-01-10T04:43:55.388Z,98768.66
2023-01-10T04:46:42.535Z,98754.22
2023-01-10T04:49:29.567Z,98758.44
2023-01-10T04:52:16.652Z,98768.03
2023-01-10T04:55:03.893Z,98776.38
2023-01-10T04:57:50.910Z,98784.34
2023-01-10T05:00:38.500Z,98800.19
2023-01-10T05:03:25.504Z,98799.59
2023-01-10T05:06:12.616Z,98797.75
2023-01-10T05:08:59.687Z,98794.91
2023-01-10T05:11:46.796Z,98805.75
2023-01-10T05:14:33.898Z,98804.19
2023-01-10T05:17:20.988Z,98817.63
2023-01-10T05:20:08.836Z,98813.28
2023-01-10T05:22:55.919Z,98804.81
2023-01-10T05:25:43.396Z,98825.19
2023-01-10T05:28:30.432Z,98830.47
2023-01-10T05:31:19.847Z,98813.88
2023-01-10T05:34:06.999Z,98827.91
2023-01-10T05:36:54.037Z,98820.91
2023-01-10T05:39:42.516Z,98831.31
2023-01-10T05:42:29.571Z,98842.91
2023-01-10T05:45:16.777Z,98857.81
2023-01-10T05:48:05.746Z,98847.28
2023-01-10T05:50:53.017Z,98866.78
2023-01-10T05:53:40.164Z,98870.78
2023-01-10T05:56:27.289Z,98880.72
2023-01-10T05:59:27.606Z,98877.81
2023-01-10T06:02:15.295Z,98858.94
2023-01-10T06:05:02.435Z,98879.59
2023-01-10T06:07:49.636Z,98875.63
2023-01-10T06:10:36.773Z,98893.78
2023-01-10T06:13:23.952Z,98885.44
2023-01-10T06:16:11.090Z,98913.47
2023-01-10T06:18:58.311Z,98912.06
2023-01-10T06:21:45.429Z,98917.13
2023-01-10T06:24:32.463Z,98941.69
2023-01-10T06:27:19.543Z,98941.31
2023-01-10T06:30:07.303Z,98945.31
2023-01-10T06:32:54.484Z,98955.84
2023-01-10T06:35:41.640Z,98955.59
2023-01-10T06:38:28.774Z,98954.50
2023-01-10T06:41:15.901Z,98962.72
2023-01-10T06:44:02.968Z,98947.00
2023-01-10T06:46:50.078Z,98978.94
2023-01-10T06:49:37.388Z,98991.91
2023-01-10T06:52:24.467Z,98984.88
2023-01-10T06:55:11.562Z,98995.03
2023-01-10T06:58:04.786Z,99002.75
2023-01-10T07:00:52.447Z,99005.09
2023-01-10T07:03:40.999Z,99015.25
2023-01-10T07:06:28.132Z,99017.16
2023-01-10T07:09:15.541Z,99021.16
2023-01-10T07:12:02.975Z,99024.88
2023-01-10T07:14:50.002Z,99043.78
2023-01-10T07:17:37.348Z,99037.16
2023-01-10T07:20:24.842Z,99058.41
2023-01-10T07:23:11.931Z,99048.50
2023-01-10T07:26:03.395Z,99064.13
2023-01-10T07:28:51.607Z,99053.22
2023-01-10T07:31:39.040Z,99050.88
2023-01-10T07:34:26.261Z,99075.50
2023-01-10T07:37:13.355Z,99074.69
2023-01-10T07:40:00.547Z,99075.28
2023-01-10T07:42:47.651Z,99088.09
2023-01-10T07:45:34.807Z,99094.25
2023-01-10T07:48:22.118Z,99092.81
2023-01-10T07:51:09.908Z,99093.81
2023-01-10T07:53:57.060Z,99085.19
2023-01-10T07:56:44.141Z,99091.63
2023-01-10T07:59:31.243Z,99095.47
2023-01-10T08:02:18.279Z,99108.09
2023-01-10T08:05:05.516Z,99114.75
2023-01-10T08:07:52.633Z,99104.72
2023-01-10T08:10:40.587Z,99122.50
2023-01-10T08:13:27.777Z,99124.56
2023-01-10T08:16:15.894Z,99129.31
2023-01-10T08:19:02.988Z,99129.16
2023-01-10T08:21:50.061Z,99141.03
2023-01-10T08:24:37.086Z,99141.66
2023-01-10T08:27:24.202Z,99147.59
2023-01-10T08:30:11.821Z,99141.66
2023-01-10T08:32:58.902Z,99158.97
2023-01-10T08:35:46.061Z,99173.06
2023-01-10T08:38:33.486Z,99172.56
2023-01-10T08:41:20.625Z,99175.09
2023-01-10T08:44:07.844Z,99181.63
2023-01-10T08:46:55.059Z,99184.91
2023-01-10T08:49:42.198Z,99195.22
2023-01-10T08:52:29.281Z,99201.53
2023-01-10T08:55:16.925Z,99199.84
2023-01-10T08:58:04.299Z,99206.75
2023-01-10T09:00:51.580Z,99209.28
2023-01-10T09:03:39.970Z,99203.13
2023-01-10T09:06:27.116Z,99226.88
2023-01-10T09:09:14.233Z,99225.41
2023-01-10T09:12:01.334Z,99241.41
2023-01-10T09:14:49.344Z,99236.66
2023-01-10T09:17:36.443Z,99250.50
2023-01-10T09:20:26.091Z,99247.34
2023-01-10T09:23:17.900Z,99257.66
2023-01-10T09:26:05.004Z,99256.69
2023-01-10T09:28:52.085Z,99262.00
2023-01-10T09:31:39.228Z,99260.31
2023-01-10T09:34:26.584Z,99261.91
2023-01-10T09:37:13.752Z,99281.41
2023-01-10T09:40:00.947Z,99290.25
2023-01-10T09:43:02.362Z,99290.03
2023-01-10T09:45:59.457Z,99289.19
2023-01-10T09:48:56.872Z,99294.41
2023-01-10T09:51:50.791Z,99296.84
2023-01-10T09:54:43.322Z,99293.06
2023-01-10T09:57:30.530Z,99305.69
2023-01-10T10:00:22.850Z,99297.91
2023-01-10T10:03:33.279Z,99292.94
2023-01-10T10:06:23.236Z,99291.00
2023-01-10T10:09:17.434Z,99301.56
2023-01-10T10:12:26.190Z,99306.91
2023-01-10T10:15:31.367Z,99303.59
2023-01-10T10:18:36.780Z,99308.13
2023-01-10T10:22:00.618Z,99313.44
2023-01-10T10:25:05.990Z,99305.09
2023-01-10T10:28:32.073Z,99306.97
2023-01-10T10:31:27.911Z,99309.31
2023-01-10T10:34:23.886Z,99315.34
2023-01-10T10:37:17.786Z,99305.69
2023-01-10T10:40:13.982Z,99304.94
2023-01-10T10:43:22.087Z,99307.81
2023-01-10T10:46:14.403Z,99321.81
2023-01-10T10:49:17.868Z,99319.97
2023-01-10T10:52:32.393Z,99317.88
2023-01-10T10:55:29.608Z,99317.03
2023-01-10T10:58:18.392Z,99326.94
2023-01-10T11:01:05.918Z,99332.13
2023-01-10T11:04:08.999Z,99324.63
2023-01-10T11:06:56.152Z,99328.09
2023-01-10T11:09:47.727Z,99313.56
2023-01-10T11:12:42.037Z,99306.09
2023-01-10T11:15:41.486Z,99314.88
2023-01-10T11:18:30.790Z,99329.69
2023-01-10T11:21:21.694Z,99336.50
2023-01-10T11:24:34.705Z,99328.31
2023-01-10T11:27:25.440Z,99346.72
2023-01-10T11:30:23.655Z,99337.44
2023-01-10T11:33:22.093Z,99327.66
2023-01-10T11:36:16.001Z,99330.81
2023-01-10T11:39:04.691Z,99330.19
2023-01-10T11:41:53.425Z,99332.97
2023-01-10T11:44:40.595Z,99340.25
2023-01-10T11:47:29.849Z,99334.16
2023-01-10T11:50:25.175Z,99326.50
2023-01-10T11:53:35.196Z,99335.63
2023-01-10T11:56:27.404Z,99334.19
2023-01-10T11:59:18.974Z,99319.69
2023-01-10T12:02:25.280Z,99341.00
2023-01-10T12:05:20.086Z,99334.81
2023-01-10T12:08:09.707Z,99351.94
2023-01-10T12:11:21.240Z,99335.97
2023-01-10T12:14:20.033Z,99357.16
2023-01-10T12:17:07.291Z,99360.97
2023-01-10T12:19:58.542Z,99371.00
2023-01-10T12:22:49.834Z,99365.72
2023-01-10T12:25:40.560Z,99357.81
2023-01-10T12:28:30.266Z,99364.56
2023-01-10T12:31:18.805Z,99365.72
2023-01-10T12:34:15.687Z,99368.16
2023-01-10T12:37:19.335Z,99381.16
2023-01-10T12:40:12.453Z,99384.91
2023-01-10T12:43:25.843Z,99390.00
2023-01-10T12:46:50.121Z,99385.53
2023-01-10T12:49:46.518Z,99380.81
2023-01-10T12:53:12.195Z,99410.06
2023-01-10T12:56:05.085Z,99416.25
2023-01-10T12:59:04.874Z,99424.16
2023-01-10T13:02:01.711Z,99428.13
2023-01-10T13:04:56.798Z,99431.69
2023-01-10T13:07:45.585Z,99429.47
2023-01-10T13:10:37.351Z,99436.72
2023-01-10T13:13:30.336Z,99437.53
2023-01-10T13:16:39.320Z,99437.41
2023-01-10T13:19:28.063Z,99450.31
2023-01-10T13:22:23.235Z,99445.16
2023-01-10T13:25:39.829Z,99442.69
2023-01-10T13:28:29.037Z,99453.66
2023-01-10T13:31:31.761Z,99458.34
2023-01-10T13:34:20.279Z,99452.63
2023-01-10T13:37:37.251Z,99466.78
2023-01-10T13:40:28.513Z,99474.59
2023-01-10T13:43:34.673Z,99487.09
2023-01-10T13:46:21.812Z,99479.31
2023-01-10T13:49:23.500Z,99487.69
2023-01-10T13:52:31.841Z,99479.31
2023-01-10T13:55:21.554Z,99494.63
2023-01-10T13:58:14.153Z,99506.25
2023-01-10T14:01:20.887Z,99502.41
2023-01-10T14:04:17.329Z,99492.81
2023-01-10T14:07:06.295Z,99492.75
2023-01-10T14:10:00.584Z,99494.34
2023-01-10T14:13:09.552Z,99507.16
2023-01-10T14:15:56.922Z,99505.66
2023-01-10T14:18:46.367Z,99490.50
2023-01-10T14:21:43.353Z,99522.16
2023-01-10T14:24:42.466Z,99519.81
2023-01-10T14:27:45.535Z,99519.41
2023-01-10T14:30:35.604Z,99520.72
2023-01-10T14:33:23.593Z,99542.44
2023-01-10T14:36:18.804Z,99544.22
2023-01-10T14:39:07.819Z,99548.50
2023-01-10T14:41:59.914Z,99541.56
2023-01-10T14:44:57.625Z,99545.00
2023-01-10T14:47:44.874Z,99539.22
2023-01-10T14:50:36.707Z,99561.19
2023-01-10T14:53:29.206Z,99552.13
2023-01-10T14:56:25.795Z,99561.19
2023-01-10T14:59:25.395Z,99572.84
2023-01-10T15:02:25.212Z,99565.38
2023-01-10T15:05:19.567Z,99568.44
2023-01-10T15:08:24.720Z,99566.63
2023-01-10T15:11:14.325Z,99571.53
2023-01-10T15:14:08.359Z,99579.97
2023-01-10T15:17:00.913Z,99580.19
2023-01-10T15:19:51.392Z,99579.13
2023-01-10T15:22:38.546Z,99582.69
2023-01-10T15:25:30.511Z,99582.34
2023-01-10T15:28:21.592Z,99588.91
2023-01-10T15:31:11.579Z,99596.47
2023-01-10T15:33:59.085Z,99605.25
2023-01-10T15:36:52.818Z,99609.84
2023-01-10T15:39:41.105Z,99614.00
2023-01-10T15:42:28.573Z,99618.88
2023-01-10T15:45:39.031Z,99619.22
2023-01-10T15:48:37.847Z,99626.25
2023-01-10T15:51:34.041Z,99616.44
2023-01-10T15:54:21.860Z,99635.53
2023-01-10T15:57:30.084Z,99626.03
2023-01-10T16:00:19.103Z,99624.25
2023-01-10T16:03:34.822Z,99622.75
2023-01-10T16:06:32.200Z,99607.94
2023-01-10T16:09:23.174Z,99628.84
2023-01-10T16:12:47.559Z,99644.41
2023-01-10T16:15:38.412Z,99640.03
2023-01-10T16:18:26.047Z,99649.38
2023-01-10T16:21:14.481Z,99638.66
2023-01-10T16:24:01.884Z,99644.84
2023-01-10T16:26:50.550Z,99654.31
2023-01-10T16:29:37.811Z,99632.44
2023-01-10T16:32:25.526Z,99667.41
2023-01-10T16:35:12.527Z,99664.22
2023-01-10T16:38:00.744Z,99673.09
2023-01-10T16:40:55.203Z,99682.03
2023-01-10T16:43:42.259Z,99689.03
2023-01-10T16:46:31.522Z,99689.78
2023-01-10T16:49:20.243Z,99704.53
2023-01-10T16:52:13.988Z,99701.72
2023-01-10T16:55:03.213Z,99701.28
2023-01-10T16:57:51.811Z,99704.63
2023-01-10T17:00:40.745Z,99723.06
2023-01-10T17:03:37.516Z,99712.94
2023-01-10T17:06:24.715Z,99717.28
2023-01-10T17:09:25.266Z,99708.34
2023-01-10T17:12:19.513Z,99714.81
2023-01-10T17:15:08.551Z,99715.88
2023-01-10T17:17:55.883Z,99731.88
2023-01-10T17:20:43.018Z,99733.13
2023-01-10T17:23:36.074Z,99726.84
2023-01-10T17:26:23.131Z,99736.09
2023-01-10T17:29:11.037Z,99747.50
2023-01-10T17:31:58.220Z,99738.59
2023-01-10T17:34:45.398Z,99735.13
2023-01-10T17:37:33.576Z,99745.78
2023-01-10T17:40:20.720Z,99751.81
2023-01-10T17:43:08.591Z,99762.72
2023-01-10T17:45:58.801Z,99748.09
2023-01-10T17:48:46.046Z,99750.56
2023-01-10T17:51:33.103Z,99741.63
2023-01-10T17:54:20.446Z,99751.19
2023-01-10T17:57:07.558Z,99746.06
2023-01-10T17:59:55.002Z,99746.09
2023-01-10T18:02:42.189Z,99755.31
2023-01-10T18:05:29.499Z,99761.41
2023-01-10T18:08:16.782Z,99761.41
2023-01-10T18:11:05.231Z,99763.66
2023-01-10T18:13:52.643Z,99768.44
2023-01-10T18:16:39.664Z,99762.03
2023-01-10T18:19:27.103Z,99759.03
2023-01-10T18:22:32.344Z,99766.59
2023-01-10T18:25:19.673Z,99765.31
2023-01-10T18:28:06.848Z,99762.72
2023-01-10T18:30:54.325Z,99773.41
2023-01-10T18:33:42.009Z,99778.41
2023-01-10T18:36:29.234Z,99776.78
2023-01-10T18:39:16.705Z,99776.78
2023-01-10T18:42:04.630Z,99779.47
2023-01-10T18:44:51.756Z,99780.50
2023-01-10T18:47:39.043Z,99766.16
2023-01-10T18:50:27.136Z,99791.00
2023-01-10T18:53:14.970Z,99776.78
2023-01-10T18:56:04.745Z,99792.78
2023-01-10T18:58:52.237Z,99788.66
2023-01-10T19:01:39.887Z,99774.81
2023-01-10T19:04:27.165Z,99791.72
2023-01-10T19:07:14.485Z,99797.25
2023-01-10T19:10:04.070Z,99801.88
2023-01-10T19:12:51.504Z,99787.06
2023-01-10T19:15:38.921Z,99799.16
2023-01-10T19:18:26.505Z,99798.94
2023-01-10T19:21:15.921Z,99790.88
2023-01-10T19:24:06.489Z,99805.63
2023-01-10T19:26:54.663Z,99790.50
2023-01-10T19:29:46.212Z,99795.84
2023-01-10T19:32:35.727Z,99797.78
2023-01-10T19:35:23.335Z,99791.69
2023-01-10T19:38:11.442Z,99782.75
2023-01-10T19:41:00.194Z,99764.63
2023-01-10T19:43:47.938Z,99795.72
2023-01-10T19:46:37.319Z,99808.56
2023-01-10T19:49:25.202Z,99776.69
2023-01-10T19:52:13.035Z,99795.97
2023-01-10T19:55:00.405Z,99796.53
2023-01-10T19:57:47.690Z,99800.25
2023-01-10T20:00:35.163Z,99806.34
2023-01-10T20:03:22.396Z,99788.00
2023-01-10T20:06:14.723Z,99786.19
2023-01-10T20:09:04.187Z,99792.97
2023-01-10T20:11:52.015Z,99794.84
2023-01-10T20:14:39.416Z,99799.69
2023-01-10T20:17:28.936Z,99797.31
2023-01-10T20:20:16.869Z,99787.91
2023-01-10T20:23:06.044Z,99789.72
2023-01-10T20:25:59.009Z,99796.09
2023-01-10T20:28:48.870Z,99792.03
2023-01-10T20:31:36.898Z,99796.19
2023-01-10T20:34:24.820Z,99769.31
2023-01-10T20:37:14.118Z,99767.03
2023-01-10T20:40:03.396Z,99781.41
2023-01-10T20:42:50.983Z,99788.22
2023-01-10T20:45:38.385Z,99779.31
2023-01-10T20:51:16.649Z,99769.31
2023-01-10T20:54:06.281Z,99740.97
2023-01-10T20:56:53.362Z,99773.38
2023-01-10T20:59:40.473Z,99784.00
2023-01-10T21:02:27.654Z,99782.47
2023-01-10T21:05:14.775Z,99781.44
2023-01-10T21:08:03.338Z,99783.69
2023-01-10T21:10:51.137Z,99766.47
2023-01-10T21:13:38.333Z,99782.41
2023-01-10T21:16:25.747Z,99774.03
2023-01-10T21:19:13.980Z,99782.22
2023-01-10T21:22:01.163Z,99777.53
2023-01-10T21:24:48.781Z,99775.50
2023-01-10T21:27:35.884Z,99761.66
2023-01-10T21:30:23.151Z,99772.72
2023-01-10T21:33:11.368Z,99772.44
2023-01-10T21:35:58.977Z,99772.97
2023-01-10T21:38:46.209Z,99768.88
2023-01-10T21:41:52.053Z,99745.88
2023-01-10T21:44:39.136Z,99758.69
2023-01-10T21:47:26.362Z,99763.84
2023-01-10T21:50:14.095Z,99751.50
2023-01-10T21:53:01.223Z,99766.75
2023-01-10T21:55:48.474Z,99747.22
2023-01-10T21:58:35.565Z,99746.88
2023-01-10T22:01:22.696Z,99754.91
2023-01-10T22:04:09.894Z,99747.16
2023-01-10T22:06:57.586Z,99748.63
2023-01-10T22:09:44.740Z,99759.53
2023-01-10T22:12:32.025Z,99766.94
2023-01-10T22:15:19.159Z,99749.97
2023-01-10T22:18:06.242Z,99755.47
2023-01-10T22:20:57.468Z,99758.56
2023-01-10T22:23:45.380Z,99724.84
2023-01-10T22:26:32.535Z,99763.53
2023-01-10T22:29:20.553Z,99756.91
2023-01-10T22:32:08.109Z,99760.88
2023-01-10T22:34:55.181Z,99755.97
2023-01-10T22:37:42.273Z,99770.13
2023-01-10T22:40:29.395Z,99770.50
2023-01-10T22:43:16.511Z,99765.91
2023-01-10T22:46:04.560Z,99769.16
2023-01-10T22:48:51.780Z,99762.78
2023-01-10T22:51:38.862Z,99761.28
2023-01-10T22:54:25.948Z,99748.63
2023-01-10T22:57:14.308Z,99756.34
2023-01-10T23:00:02.358Z,99757.50
2023-01-10T23:02:49.447Z,99755.00
2023-01-10T23:05:36.545Z,99759.34
2023-01-10T23:08:24.535Z,99762.63
2023-01-10T23:11:15.117Z,99762.16
2023-01-10T23:14:04.015Z,99752.44
2023-01-10T23:16:51.064Z,99755.09
2023-01-10T23:19:38.132Z,99751.44
2023-01-10T23:22:25.736Z,99743.75
2023-01-10T23:25:12.913Z,99745.44
2023-01-10T23:28:00.039Z,99738.88
2023-01-10T23:30:47.074Z,99750.25
2023-01-10T23:33:34.739Z,99740.38
2023-01-10T23:36:22.621Z,99736.66
2023-01-10T23:39:09.671Z,99735.63
2023-01-10T23:41:56.988Z,99728.03
2023-01-10T23:44:45.179Z,99722.25
2023-01-10T23:47:33.420Z,99714.41
2023-01-10T23:50:21.666Z,99727.53
2023-01-10T23:53:08.939Z,99725.31
2023-01-10T23:55:56.949Z,99722.13
2023-01-10T23:58:44.128Z,99722.19
